sensor_id;sensor_type;location;lat;lon;timestamp;pressure;altitude;pressure_sealevel;temperature;humidity
69318;BME280;56457;52.190;4.440;2023-04-29T00:00:29;101718.22;;;9.36;100.00
69318;BME280;56457;52.190;4.440;2023-04-29T00:01:30;101721.69;;;9.35;100.00
69318;BME280;56457;52.190;4.440;2023-04-29T00:02:30;101719.94;;;9.35;100.00
69318;BME280;56457;52.190;4.440;2023-04-29T00:03:31;101720.75;;;9.28;100.00
69318;BME280;56457;52.190;4.440;2023-04-29T00:04:31;101719.06;;;9.33;100.00
69318;BME280;56457;52.190;4.440;2023-04-29T00:05:32;101722.56;;;9.34;100.00
69318;BME280;56457;52.190;4.440;2023-04-29T00:06:32;101715.50;;;9.28;100.00
69318;BME280;56457;52.190;4.440;2023-04-29T00:07:33;101721.63;;;9.27;100.00
69318;BME280;56457;52.190;4.440;2023-04-29T00:08:33;101723.31;;;9.24;100.00
69318;BME280;56457;52.190;4.440;2023-04-29T00:09:33;101735.53;;;9.23;100.00
69318;BME280;56457;52.190;4.440;2023-04-29T00:10:34;101730.34;;;9.26;100.00
69318;BME280;56457;52.190;4.440;2023-04-29T00:11:34;101736.44;;;9.27;100.00
69318;BME280;56457;52.190;4.440;2023-04-29T00:12:34;101734.78;;;9.32;100.00
69318;BME280;56457;52.190;4.440;2023-04-29T00:13:35;101741.69;;;9.27;100.00
69318;BME280;56457;52.190;4.440;2023-04-29T00:14:35;101736.44;;;9.27;100.00
69318;BME280;56457;52.190;4.440;2023-04-29T00:15:36;101739.13;;;9.33;100.00
69318;BME280;56457;52.190;4.440;2023-04-29T00:16:36;101738.16;;;9.25;100.00
69318;BME280;56457;52.190;4.440;2023-04-29T00:17:36;101745.97;;;9.20;100.00
69318;BME280;56457;52.190;4.440;2023-04-29T00:18:37;101746.78;;;9.17;100.00
69318;BME280;56457;52.190;4.440;2023-04-29T00:19:37;101748.53;;;9.18;100.00
69318;BME280;56457;52.190;4.440;2023-04-29T00:20:37;101746.84;;;9.21;100.00
69318;BME280;56457;52.190;4.440;2023-04-29T00:21:38;101743.34;;;9.20;100.00
69318;BME280;56457;52.190;4.440;2023-04-29T00:22:38;101753.78;;;9.18;100.00
69318;BME280;56457;52.190;4.440;2023-04-29T00:23:38;101758.09;;;9.13;100.00
69318;BME280;56457;52.190;4.440;2023-04-29T00:24:39;101754.63;;;9.16;100.00
69318;BME280;56457;52.190;4.440;2023-04-29T00:25:39;101752.81;;;9.09;100.00
69318;BME280;56457;52.190;4.440;2023-04-29T00:26:39;101755.50;;;9.13;100.00
69318;BME280;56457;52.190;4.440;2023-04-29T00:27:40;101759.03;;;9.18;100.00
69318;BME280;56457;52.190;4.440;2023-04-29T00:28:40;101758.19;;;9.20;100.00
69318;BME280;56457;52.190;4.440;2023-04-29T00:29:41;101757.25;;;9.17;100.00
69318;BME280;56457;52.190;4.440;2023-04-29T00:30:41;101760.75;;;9.18;100.00
69318;BME280;56457;52.190;4.440;2023-04-29T00:31:42;101759.91;;;9.19;100.00
69318;BME280;56457;52.190;4.440;2023-04-29T00:32:42;101758.16;;;9.18;100.00
69318;BME280;56457;52.190;4.440;2023-04-29T00:33:43;101761.69;;;9.20;100.00
69318;BME280;56457;52.190;4.440;2023-04-29T00:34:44;101758.16;;;9.18;100.00
69318;BME280;56457;52.190;4.440;2023-04-29T00:35:45;101764.22;;;9.15;100.00
69318;BME280;56457;52.190;4.440;2023-04-29T00:36:46;101765.97;;;9.16;100.00
69318;BME280;56457;52.190;4.440;2023-04-29T00:37:46;101762.56;;;9.21;100.00
69318;BME280;56457;52.190;4.440;2023-04-29T00:38:47;101763.34;;;9.13;100.00
69318;BME280;56457;52.190;4.440;2023-04-29T00:39:47;101773.84;;;9.18;100.00
69318;BME280;56457;52.190;4.440;2023-04-29T00:40:48;101761.69;;;9.20;100.00
69318;BME280;56457;52.190;4.440;2023-04-29T00:41:48;101766.88;;;9.17;100.00
69318;BME280;56457;52.190;4.440;2023-04-29T00:42:49;101764.31;;;9.20;100.00
69318;BME280;56457;52.190;4.440;2023-04-29T00:43:49;101771.22;;;9.18;100.00
69318;BME280;56457;52.190;4.440;2023-04-29T00:44:51;101761.56;;;9.12;100.00
69318;BME280;56457;52.190;4.440;2023-04-29T00:45:51;101765.91;;;9.10;100.00
69318;BME280;56457;52.190;4.440;2023-04-29T00:46:53;101767.78;;;9.21;100.00
69318;BME280;56457;52.190;4.440;2023-04-29T00:47:53;101767.81;;;9.24;100.00
69318;BME280;56457;52.190;4.440;2023-04-29T00:48:54;101767.00;;;9.26;100.00
69318;BME280;56457;52.190;4.440;2023-04-29T00:49:54;101770.44;;;9.24;100.00
69318;BME280;56457;52.190;4.440;2023-04-29T00:50:54;101768.69;;;9.24;100.00
69318;BME280;56457;52.190;4.440;2023-04-29T00:51:55;101767.81;;;9.22;100.00
69318;BME280;56457;52.190;4.440;2023-04-29T00:52:56;101771.31;;;9.24;100.00
69318;BME280;56457;52.190;4.440;2023-04-29T00:53:57;101776.63;;;9.30;100.00
69318;BME280;56457;52.190;4.440;2023-04-29T00:54:57;101768.78;;;9.30;100.00
69318;BME280;56457;52.190;4.440;2023-04-29T00:55:59;101768.75;;;9.26;100.00
69318;BME280;56457;52.190;4.440;2023-04-29T00:57:00;101772.25;;;9.28;100.00
69318;BME280;56457;52.190;4.440;2023-04-29T00:58:01;101774.78;;;9.23;100.00
69318;BME280;56457;52.190;4.440;2023-04-29T00:59:03;101780.88;;;9.21;100.00
69318;BME280;56457;52.190;4.440;2023-04-29T01:00:05;101780.84;;;9.19;100.00
69318;BME280;56457;52.190;4.440;2023-04-29T01:01:05;101770.44;;;9.25;100.00
69318;BME280;56457;52.190;4.440;2023-04-29T01:02:06;101764.41;;;9.29;100.00
69318;BME280;56457;52.190;4.440;2023-04-29T01:03:07;101759.13;;;9.26;100.00
69318;BME280;56457;52.190;4.440;2023-04-29T01:04:07;101769.63;;;9.28;100.00
69318;BME280;56457;52.190;4.440;2023-04-29T01:05:08;101766.13;;;9.26;100.00
69318;BME280;56457;52.190;4.440;2023-04-29T01:06:12;101774.88;;;9.31;100.00
69318;BME280;56457;52.190;4.440;2023-04-29T01:11:07;101775.75;;;9.30;100.00
69318;BME280;56457;52.190;4.440;2023-04-29T01:13:32;101778.34;;;9.27;100.00
69318;BME280;56457;52.190;4.440;2023-04-29T01:14:33;101775.69;;;9.25;100.00
69318;BME280;56457;52.190;4.440;2023-04-29T01:16:41;101780.09;;;9.29;100.00
69318;BME280;56457;52.190;4.440;2023-04-29T01:17:44;101775.81;;;9.33;100.00
69318;BME280;56457;52.190;4.440;2023-04-29T01:18:51;101782.72;;;9.29;100.00
69318;BME280;56457;52.190;4.440;2023-04-29T01:19:54;101783.59;;;9.28;100.00
69318;BME280;56457;52.190;4.440;2023-04-29T01:20:55;101782.72;;;9.29;100.00
69318;BME280;56457;52.190;4.440;2023-04-29T01:21:56;101781.84;;;9.29;100.00
69318;BME280;56457;52.190;4.440;2023-04-29T01:22:56;101780.09;;;9.28;100.00
69318;BME280;56457;52.190;4.440;2023-04-29T01:23:57;101788.84;;;9.28;100.00
69318;BME280;56457;52.190;4.440;2023-04-29T01:24:57;101792.38;;;9.32;100.00
69318;BME280;56457;52.190;4.440;2023-04-29T01:25:57;101794.09;;;9.30;100.00
69318;BME280;56457;52.190;4.440;2023-04-29T01:27:01;101787.16;;;9.35;100.00
69318;BME280;56457;52.190;4.440;2023-04-29T01:28:07;101791.53;;;9.37;100.00
69318;BME280;56457;52.190;4.440;2023-04-29T01:29:15;101792.41;;;9.35;100.00
69318;BME280;56457;52.190;4.440;2023-04-29T01:31:50;101795.16;;;9.44;100.00
69318;BME280;56457;52.190;4.440;2023-04-29T01:33:02;101790.75;;;9.43;100.00
69318;BME280;56457;52.190;4.440;2023-04-29T01:34:07;101792.53;;;9.44;100.00
69318;BME280;56457;52.190;4.440;2023-04-29T01:36:21;101780.41;;;9.55;100.00
69318;BME280;56457;52.190;4.440;2023-04-29T01:38:29;101785.56;;;9.46;100.00
69318;BME280;56457;52.190;4.440;2023-04-29T01:42:14;101785.56;;;9.44;100.00
69318;BME280;56457;52.190;4.440;2023-04-29T01:43:17;101788.13;;;9.43;100.00
69318;BME280;56457;52.190;4.440;2023-04-29T01:44:19;101795.09;;;9.42;100.00
69318;BME280;56457;52.190;4.440;2023-04-29T01:45:21;101795.09;;;9.42;100.00
69318;BME280;56457;52.190;4.440;2023-04-29T01:46:22;101788.09;;;9.38;100.00
69318;BME280;56457;52.190;4.440;2023-04-29T01:47:22;101787.28;;;9.44;100.00
69318;BME280;56457;52.190;4.440;2023-04-29T01:48:23;101773.34;;;9.45;100.00
69318;BME280;56457;52.190;4.440;2023-04-29T01:49:24;101781.22;;;9.50;100.00
69318;BME280;56457;52.190;4.440;2023-04-29T01:50:25;101777.78;;;9.54;100.00
69318;BME280;56457;52.190;4.440;2023-04-29T01:51:25;101776.91;;;9.52;100.00
69318;BME280;56457;52.190;4.440;2023-04-29T01:52:27;101777.69;;;9.44;100.00
69318;BME280;56457;52.190;4.440;2023-04-29T01:53:27;101781.19;;;9.45;100.00
69318;BME280;56457;52.190;4.440;2023-04-29T01:54:28;101781.16;;;9.43;100.00
69318;BME280;56457;52.190;4.440;2023-04-29T01:55:28;101779.47;;;9.49;100.00
69318;BME280;56457;52.190;4.440;2023-04-29T01:56:28;101782.06;;;9.46;100.00
69318;BME280;56457;52.190;4.440;2023-04-29T01:57:29;101782.94;;;9.48;100.00
69318;BME280;56457;52.190;4.440;2023-04-29T01:58:29;101783.81;;;9.45;100.00
69318;BME280;56457;52.190;4.440;2023-04-29T01:59:29;101777.72;;;9.49;100.00
69318;BME280;56457;52.190;4.440;2023-04-29T02:00:30;101779.47;;;9.50;100.00
69318;BME280;56457;52.190;4.440;2023-04-29T02:01:30;101774.22;;;9.47;100.00
69318;BME280;56457;52.190;4.440;2023-04-29T02:02:30;101774.22;;;9.46;100.00
69318;BME280;56457;52.190;4.440;2023-04-29T02:03:30;101780.34;;;9.48;100.00
69318;BME280;56457;52.190;4.440;2023-04-29T02:04:31;101773.34;;;9.47;100.00
69318;BME280;56457;52.190;4.440;2023-04-29T02:05:33;101779.53;;;9.55;100.00
69318;BME280;56457;52.190;4.440;2023-04-29T02:06:34;101774.28;;;9.53;100.00
69318;BME280;56457;52.190;4.440;2023-04-29T02:07:35;101782.13;;;9.52;100.00
69318;BME280;56457;52.190;4.440;2023-04-29T02:08:35;101787.41;;;9.55;100.00
69318;BME280;56457;52.190;4.440;2023-04-29T02:09:36;101779.53;;;9.52;100.00
69318;BME280;56457;52.190;4.440;2023-04-29T02:10:36;101785.63;;;9.52;100.00
69318;BME280;56457;52.190;4.440;2023-04-29T02:11:37;101782.16;;;9.56;100.00
69318;BME280;56457;52.190;4.440;2023-04-29T02:12:37;101783.09;;;9.58;100.00
69318;BME280;56457;52.190;4.440;2023-04-29T02:13:37;101777.88;;;9.61;100.00
69318;BME280;56457;52.190;4.440;2023-04-29T02:14:38;101783.16;;;9.66;100.00
69318;BME280;56457;52.190;4.440;2023-04-29T02:15:38;101784.91;;;9.65;100.00
69318;BME280;56457;52.190;4.440;2023-04-29T02:16:38;101792.72;;;9.61;100.00
69318;BME280;56457;52.190;4.440;2023-04-29T02:17:39;101782.22;;;9.59;100.00
69318;BME280;56457;52.190;4.440;2023-04-29T02:18:40;101787.47;;;9.59;100.00
69318;BME280;56457;52.190;4.440;2023-04-29T02:19:40;101790.06;;;9.59;100.00
69318;BME280;56457;52.190;4.440;2023-04-29T02:20:41;101793.56;;;9.57;100.00
69318;BME280;56457;52.190;4.440;2023-04-29T02:21:41;101797.94;;;9.59;100.00
69318;BME280;56457;52.190;4.440;2023-04-29T02:22:42;101796.19;;;9.58;100.00
69318;BME280;56457;52.190;4.440;2023-04-29T02:23:42;101811.03;;;9.59;100.00
69318;BME280;56457;52.190;4.440;2023-04-29T02:24:42;101805.81;;;9.61;100.00
69318;BME280;56457;52.190;4.440;2023-04-29T02:25:43;101800.63;;;9.64;100.00
69318;BME280;56457;52.190;4.440;2023-04-29T02:26:43;101805.00;;;9.66;100.00
69318;BME280;56457;52.190;4.440;2023-04-29T02:27:43;101807.59;;;9.65;100.00
69318;BME280;56457;52.190;4.440;2023-04-29T02:28:44;101805.88;;;9.65;100.00
69318;BME280;56457;52.190;4.440;2023-04-29T02:29:45;101805.84;;;9.64;100.00
69318;BME280;56457;52.190;4.440;2023-04-29T02:30:45;101808.44;;;9.62;100.00
69318;BME280;56457;52.190;4.440;2023-04-29T02:31:45;101803.19;;;9.62;100.00
69318;BME280;56457;52.190;4.440;2023-04-29T02:32:46;101801.44;;;9.60;100.00
69318;BME280;56457;52.190;4.440;2023-04-29T02:33:46;101805.84;;;9.64;100.00
69318;BME280;56457;52.190;4.440;2023-04-29T02:34:46;101800.63;;;9.67;100.00
69318;BME280;56457;52.190;4.440;2023-04-29T02:35:48;101797.16;;;9.68;100.00
69318;BME280;56457;52.190;4.440;2023-04-29T02:36:48;101802.44;;;9.73;100.00
69318;BME280;56457;52.190;4.440;2023-04-29T02:37:49;101800.72;;;9.75;100.00
69318;BME280;56457;52.190;4.440;2023-04-29T02:38:49;101800.75;;;9.76;100.00
69318;BME280;56457;52.190;4.440;2023-04-29T02:39:49;101806.88;;;9.80;100.00
69318;BME280;56457;52.190;4.440;2023-04-29T02:40:50;101802.50;;;9.76;100.00
69318;BME280;56457;52.190;4.440;2023-04-29T02:41:52;101803.34;;;9.75;100.00
69318;BME280;56457;52.190;4.440;2023-04-29T02:42:53;101805.13;;;9.76;100.00
69318;BME280;56457;52.190;4.440;2023-04-29T02:43:53;101811.19;;;9.73;100.00
69318;BME280;56457;52.190;4.440;2023-04-29T02:44:53;101806.81;;;9.70;100.00
69318;BME280;56457;52.190;4.440;2023-04-29T02:45:54;101810.31;;;9.74;100.00
69318;BME280;56457;52.190;4.440;2023-04-29T02:46:54;101806.81;;;9.74;100.00
69318;BME280;56457;52.190;4.440;2023-04-29T02:47:54;101812.94;;;9.73;100.00
69318;BME280;56457;52.190;4.440;2023-04-29T02:48:54;101814.75;;;9.78;100.00
69318;BME280;56457;52.190;4.440;2023-04-29T02:49:55;101816.50;;;9.81;100.00
69318;BME280;56457;52.190;4.440;2023-04-29T02:50:55;101819.13;;;9.81;100.00
69318;BME280;56457;52.190;4.440;2023-04-29T02:51:55;101817.34;;;9.75;100.00
69318;BME280;56457;52.190;4.440;2023-04-29T02:52:57;101824.28;;;9.75;100.00
69318;BME280;56457;52.190;4.440;2023-04-29T02:53:57;101827.78;;;9.74;100.00
69318;BME280;56457;52.190;4.440;2023-04-29T02:54:58;101824.28;;;9.75;100.00
69318;BME280;56457;52.190;4.440;2023-04-29T02:55:58;101823.47;;;9.77;100.00
69318;BME280;56457;52.190;4.440;2023-04-29T02:56:58;101823.41;;;9.74;100.00
69318;BME280;56457;52.190;4.440;2023-04-29T02:57:59;101827.78;;;9.74;100.00
69318;BME280;56457;52.190;4.440;2023-04-29T02:58:59;101828.69;;;9.76;100.00
69318;BME280;56457;52.190;4.440;2023-04-29T02:59:59;101829.56;;;9.76;100.00
69318;BME280;56457;52.190;4.440;2023-04-29T03:01:01;101840.03;;;9.75;100.00
69318;BME280;56457;52.190;4.440;2023-04-29T03:02:01;101839.16;;;9.74;100.00
69318;BME280;56457;52.190;4.440;2023-04-29T03:03:01;101837.38;;;9.73;100.00
69318;BME280;56457;52.190;4.440;2023-04-29T03:04:02;101846.19;;;9.78;100.00
69318;BME280;56457;52.190;4.440;2023-04-29T03:05:02;101841.81;;;9.76;100.00
69318;BME280;56457;52.190;4.440;2023-04-29T03:06:03;101840.97;;;9.80;100.00
69318;BME280;56457;52.190;4.440;2023-04-29T03:07:03;101844.44;;;9.77;100.00
69318;BME280;56457;52.190;4.440;2023-04-29T03:08:04;101851.44;;;9.80;100.00
69318;BME280;56457;52.190;4.440;2023-04-29T03:09:04;101841.88;;;9.83;100.00
69318;BME280;56457;52.190;4.440;2023-04-29T03:10:05;101848.00;;;9.85;100.00
69318;BME280;56457;52.190;4.440;2023-04-29T03:11:05;101842.75;;;9.84;100.00
69318;BME280;56457;52.190;4.440;2023-04-29T03:12:06;101848.81;;;9.81;100.00
69318;BME280;56457;52.190;4.440;2023-04-29T03:13:06;101852.34;;;9.82;100.00
69318;BME280;56457;52.190;4.440;2023-04-29T03:14:06;101855.00;;;9.85;100.00
69318;BME280;56457;52.190;4.440;2023-04-29T03:15:06;101846.31;;;9.89;100.00
69318;BME280;56457;52.190;4.440;2023-04-29T03:16:07;101841.09;;;9.90;100.00
69318;BME280;56457;52.190;4.440;2023-04-29T03:17:07;101845.44;;;9.90;100.00
69318;BME280;56457;52.190;4.440;2023-04-29T03:18:08;101852.44;;;9.88;100.00
69318;BME280;56457;52.190;4.440;2023-04-29T03:19:08;101849.75;;;9.86;100.00
69318;BME280;56457;52.190;4.440;2023-04-29T03:20:09;101858.50;;;9.84;100.00
69318;BME280;56457;52.190;4.440;2023-04-29T03:21:10;101856.75;;;9.86;100.00
69318;BME280;56457;52.190;4.440;2023-04-29T03:22:11;101846.25;;;9.84;100.00
69318;BME280;56457;52.190;4.440;2023-04-29T03:23:11;101845.38;;;9.82;100.00
69318;BME280;56457;52.190;4.440;2023-04-29T03:24:11;101861.13;;;9.85;100.00
69318;BME280;56457;52.190;4.440;2023-04-29T03:25:11;101862.88;;;9.85;100.00
69318;BME280;56457;52.190;4.440;2023-04-29T03:26:12;101855.84;;;9.82;100.00
69318;BME280;56457;52.190;4.440;2023-04-29T03:27:12;101858.50;;;9.87;100.00
69318;BME280;56457;52.190;4.440;2023-04-29T03:28:13;101855.88;;;9.84;100.00
69318;BME280;56457;52.190;4.440;2023-04-29T03:29:14;101864.66;;;9.89;100.00
69318;BME280;56457;52.190;4.440;2023-04-29T03:30:14;101853.31;;;9.90;100.00
69318;BME280;56457;52.190;4.440;2023-04-29T03:31:15;101851.56;;;9.90;100.00
69318;BME280;56457;52.190;4.440;2023-04-29T03:32:16;101848.06;;;9.90;100.00
69318;BME280;56457;52.190;4.440;2023-04-29T03:33:16;101853.34;;;9.93;100.00
69318;BME280;56457;52.190;4.440;2023-04-29T03:34:16;101857.75;;;9.94;100.00
69318;BME280;56457;52.190;4.440;2023-04-29T03:35:16;101858.63;;;9.94;100.00
69318;BME280;56457;52.190;4.440;2023-04-29T03:36:17;101854.19;;;9.90;100.00
69318;BME280;56457;52.190;4.440;2023-04-29T03:37:17;101852.44;;;9.88;100.00
69318;BME280;56457;52.190;4.440;2023-04-29T03:38:17;101862.00;;;9.87;100.00
69318;BME280;56457;52.190;4.440;2023-04-29T03:39:18;101857.63;;;9.85;100.00
69318;BME280;56457;52.190;4.440;2023-04-29T03:40:18;101858.50;;;9.85;100.00
69318;BME280;56457;52.190;4.440;2023-04-29T03:41:18;101867.25;;;9.87;100.00
69318;BME280;56457;52.190;4.440;2023-04-29T03:42:19;101863.81;;;9.90;100.00
69318;BME280;56457;52.190;4.440;2023-04-29T03:43:20;101868.19;;;9.91;100.00
69318;BME280;56457;52.190;4.440;2023-04-29T03:44:20;101862.88;;;9.86;100.00
69318;BME280;56457;52.190;4.440;2023-04-29T03:45:20;101871.66;;;9.90;100.00
69318;BME280;56457;52.190;4.440;2023-04-29T03:46:20;101876.03;;;9.91;100.00
69318;BME280;56457;52.190;4.440;2023-04-29T03:47:21;101870.81;;;9.92;100.00
69318;BME280;56457;52.190;4.440;2023-04-29T03:48:21;101869.88;;;9.87;100.00
69318;BME280;56457;52.190;4.440;2023-04-29T03:49:21;101867.25;;;9.87;100.00
69318;BME280;56457;52.190;4.440;2023-04-29T03:50:22;101875.16;;;9.89;100.00
69318;BME280;56457;52.190;4.440;2023-04-29T03:51:23;101882.94;;;9.84;100.00
69318;BME280;56457;52.190;4.440;2023-04-29T03:52:24;101878.56;;;9.83;100.00
69318;BME280;56457;52.190;4.440;2023-04-29T03:53:24;101877.69;;;9.83;100.00
69318;BME280;56457;52.190;4.440;2023-04-29T03:54:25;101877.69;;;9.83;100.00
69318;BME280;56457;52.190;4.440;2023-04-29T03:55:26;101884.72;;;9.85;100.00
69318;BME280;56457;52.190;4.440;2023-04-29T03:56:26;101882.94;;;9.84;100.00
69318;BME280;56457;52.190;4.440;2023-04-29T03:57:26;101884.63;;;9.79;100.00
69318;BME280;56457;52.190;4.440;2023-04-29T03:58:27;101885.56;;;9.83;100.00
69318;BME280;56457;52.190;4.440;2023-04-29T03:59:27;101885.56;;;9.83;100.00
69318;BME280;56457;52.190;4.440;2023-04-29T04:00:28;101896.13;;;9.92;100.00
69318;BME280;56457;52.190;4.440;2023-04-29T04:01:30;101894.38;;;9.88;100.00
69318;BME280;56457;52.190;4.440;2023-04-29T04:02:30;101896.91;;;9.82;100.00
69318;BME280;56457;52.190;4.440;2023-04-29T04:03:30;101892.56;;;9.85;100.00
69318;BME280;56457;52.190;4.440;2023-04-29T04:04:31;101894.38;;;9.88;100.00
69318;BME280;56457;52.190;4.440;2023-04-29T04:05:32;101901.31;;;9.84;100.00
69318;BME280;56457;52.190;4.440;2023-04-29T04:06:32;101897.75;;;9.81;100.00
69318;BME280;56457;52.190;4.440;2023-04-29T04:07:32;101898.59;;;9.78;100.00
69318;BME280;56457;52.190;4.440;2023-04-29T04:08:33;101891.63;;;9.80;100.00
69318;BME280;56457;52.190;4.440;2023-04-29T04:09:33;101900.41;;;9.84;100.00
69318;BME280;56457;52.190;4.440;2023-04-29T04:10:33;101899.56;;;9.85;100.00
69318;BME280;56457;52.190;4.440;2023-04-29T04:11:34;101898.63;;;9.81;100.00
69318;BME280;56457;52.190;4.440;2023-04-29T04:12:35;101902.97;;;9.79;100.00
69318;BME280;56457;52.190;4.440;2023-04-29T04:13:35;101910.91;;;9.82;100.00
69318;BME280;56457;52.190;4.440;2023-04-29T04:14:36;101906.47;;;9.80;100.00
69318;BME280;56457;52.190;4.440;2023-04-29T04:15:36;101909.09;;;9.81;100.00
69318;BME280;56457;52.190;4.440;2023-04-29T04:16:36;101906.53;;;9.84;100.00
69318;BME280;56457;52.190;4.440;2023-04-29T04:17:37;101911.78;;;9.83;100.00
69318;BME280;56457;52.190;4.440;2023-04-29T04:18:37;101914.34;;;9.80;100.00
69318;BME280;56457;52.190;4.440;2023-04-29T04:19:38;101917.81;;;9.77;100.00
69318;BME280;56457;52.190;4.440;2023-04-29T04:20:38;101917.81;;;9.79;100.00
69318;BME280;56457;52.190;4.440;2023-04-29T04:21:38;101914.41;;;9.84;100.00
69318;BME280;56457;52.190;4.440;2023-04-29T04:22:39;101916.22;;;9.90;100.00
69318;BME280;56457;52.190;4.440;2023-04-29T04:23:39;101909.22;;;9.89;100.00
69318;BME280;56457;52.190;4.440;2023-04-29T04:24:40;101912.66;;;9.85;100.00
69318;BME280;56457;52.190;4.440;2023-04-29T04:25:44;101917.03;;;9.86;100.00
69318;BME280;56457;52.190;4.440;2023-04-29T04:26:44;101924.88;;;9.84;100.00
69318;BME280;56457;52.190;4.440;2023-04-29T04:27:45;101924.03;;;9.85;100.00
69318;BME280;56457;52.190;4.440;2023-04-29T04:28:45;101922.19;;;9.80;100.00
69318;BME280;56457;52.190;4.440;2023-04-29T04:29:45;101924.81;;;9.80;100.00
69318;BME280;56457;52.190;4.440;2023-04-29T04:30:46;101935.28;;;9.78;100.00
69318;BME280;56457;52.190;4.440;2023-04-29T04:31:47;101931.78;;;9.76;100.00
69318;BME280;56457;52.190;4.440;2023-04-29T04:32:47;101927.50;;;9.83;100.00
69318;BME280;56457;52.190;4.440;2023-04-29T04:33:47;101932.69;;;9.81;100.00
69318;BME280;56457;52.190;4.440;2023-04-29T04:34:48;101939.66;;;9.78;100.00
69318;BME280;56457;52.190;4.440;2023-04-29T04:35:48;101938.72;;;9.74;100.00
69318;BME280;56457;52.190;4.440;2023-04-29T04:36:48;101944.03;;;9.77;100.00
69318;BME280;56457;52.190;4.440;2023-04-29T04:37:49;101940.50;;;9.75;100.00
69318;BME280;56457;52.190;4.440;2023-04-29T04:38:49;101943.94;;;9.73;100.00
69318;BME280;56457;52.190;4.440;2023-04-29T04:39:49;101946.59;;;9.74;100.00
69318;BME280;56457;52.190;4.440;2023-04-29T04:40:50;101951.03;;;9.78;100.00
69318;BME280;56457;52.190;4.440;2023-04-29T04:41:50;101937.94;;;9.80;100.00
69318;BME280;56457;52.190;4.440;2023-04-29T04:42:50;101940.63;;;9.84;100.00
69318;BME280;56457;52.190;4.440;2023-04-29T04:43:51;101947.63;;;9.85;100.00
69318;BME280;56457;52.190;4.440;2023-04-29T04:44:51;101946.81;;;9.91;100.00
69318;BME280;56457;52.190;4.440;2023-04-29T04:45:52;101952.09;;;9.94;100.00
69318;BME280;56457;52.190;4.440;2023-04-29T04:46:52;101944.25;;;9.94;100.00
69318;BME280;56457;52.190;4.440;2023-04-29T04:47:52;101946.78;;;9.88;100.00
69318;BME280;56457;52.190;4.440;2023-04-29T04:48:53;101951.16;;;9.89;100.00
69318;BME280;56457;52.190;4.440;2023-04-29T04:49:53;101952.88;;;9.87;100.00
69318;BME280;56457;52.190;4.440;2023-04-29T04:50:53;101955.56;;;9.91;100.00
69318;BME280;56457;52.190;4.440;2023-04-29T04:51:54;101949.34;;;9.85;100.00
69318;BME280;56457;52.190;4.440;2023-04-29T04:52:55;101957.22;;;9.85;100.00
69318;BME280;56457;52.190;4.440;2023-04-29T04:53:56;101959.81;;;9.82;100.00
69318;BME280;56457;52.190;4.440;2023-04-29T04:54:56;101965.09;;;9.85;100.00
69318;BME280;56457;52.190;4.440;2023-04-29T04:55:59;101958.06;;;9.82;100.00
69318;BME280;56457;52.190;4.440;2023-04-29T04:57:00;101963.31;;;9.84;100.00
69318;BME280;56457;52.190;4.440;2023-04-29T04:58:02;101969.50;;;9.89;100.00
69318;BME280;56457;52.190;4.440;2023-04-29T04:59:02;101965.16;;;9.89;100.00
69318;BME280;56457;52.190;4.440;2023-04-29T05:00:03;101966.94;;;9.93;100.00
69318;BME280;56457;52.190;4.440;2023-04-29T05:01:04;101967.78;;;9.91;100.00
69318;BME280;56457;52.190;4.440;2023-04-29T05:02:04;101968.56;;;9.85;100.00
69318;BME280;56457;52.190;4.440;2023-04-29T05:03:04;101971.22;;;9.87;100.00
69318;BME280;56457;52.190;4.440;2023-04-29T05:04:05;101971.28;;;9.90;100.00
69318;BME280;56457;52.190;4.440;2023-04-29T05:05:05;101977.34;;;9.87;100.00
69318;BME280;56457;52.190;4.440;2023-04-29T05:06:06;101973.91;;;9.93;100.00
69318;BME280;56457;52.190;4.440;2023-04-29T05:07:06;101975.66;;;9.92;100.00
69318;BME280;56457;52.190;4.440;2023-04-29T05:08:06;101973.97;;;9.94;100.00
69318;BME280;56457;52.190;4.440;2023-04-29T05:09:07;101978.28;;;9.91;100.00
69318;BME280;56457;52.190;4.440;2023-04-29T05:10:07;101971.28;;;9.90;100.00
69318;BME280;56457;52.190;4.440;2023-04-29T05:11:25;101973.91;;;9.91;100.00
69318;BME280;56457;52.190;4.440;2023-04-29T05:12:29;101981.75;;;9.88;100.00
69318;BME280;56457;52.190;4.440;2023-04-29T05:13:31;101988.75;;;9.91;100.00
69318;BME280;56457;52.190;4.440;2023-04-29T05:14:31;101981.84;;;9.96;100.00
69318;BME280;56457;52.190;4.440;2023-04-29T05:15:32;101980.09;;;9.96;100.00
69318;BME280;56457;52.190;4.440;2023-04-29T05:16:32;101986.19;;;9.94;100.00
69318;BME280;56457;52.190;4.440;2023-04-29T05:17:32;101988.81;;;9.94;100.00
69318;BME280;56457;52.190;4.440;2023-04-29T05:18:35;101993.13;;;9.90;100.00
69318;BME280;56457;52.190;4.440;2023-04-29T05:19:35;101988.75;;;9.91;100.00
69318;BME280;56457;52.190;4.440;2023-04-29T05:20:36;101989.66;;;9.93;100.00
69318;BME280;56457;52.190;4.440;2023-04-29T05:21:36;101995.81;;;9.96;100.00
69318;BME280;56457;52.190;4.440;2023-04-29T05:22:37;101994.13;;;10.00;100.00
69318;BME280;56457;52.190;4.440;2023-04-29T05:23:37;101992.41;;;10.02;100.00
69318;BME280;56457;52.190;4.440;2023-04-29T05:24:37;101995.91;;;10.04;100.00
69318;BME280;56457;52.190;4.440;2023-04-29T05:25:38;101997.56;;;9.97;100.00
69318;BME280;56457;52.190;4.440;2023-04-29T05:26:38;101993.28;;;10.01;100.00
69318;BME280;56457;52.190;4.440;2023-04-29T05:27:38;102000.25;;;10.02;100.00
69318;BME280;56457;52.190;4.440;2023-04-29T05:28:39;101998.47;;;9.99;100.00
69318;BME280;56457;52.190;4.440;2023-04-29T05:29:39;102002.81;;;9.96;100.00
69318;BME280;56457;52.190;4.440;2023-04-29T05:30:40;101999.38;;;10.00;100.00